createdAt,value
2023-01-18T00:01:19.394Z,6.67
2023-01-18T00:03:46.863Z,6.47
2023-01-18T00:06:14.245Z,6.60
2023-01-18T00:08:42.476Z,7.53
2023-01-18T00:11:13.060Z,7.93
2023-01-18T00:13:40.365Z,7.70
2023-01-18T00:16:21.903Z,7.47
2023-01-18T00:18:57.933Z,8.20
2023-01-18T00:21:27.340Z,10.30
2023-01-18T00:23:57.541Z,8.50
2023-01-18T00:26:24.586Z,6.77
2023-01-18T00:28:51.625Z,7.80
2023-01-18T00:31:21.229Z,7.47
2023-01-18T00:33:50.157Z,7.90
2023-01-18T00:36:18.374Z,8.13
2023-01-18T00:38:51.852Z,8.23
2023-01-18T00:41:19.838Z,7.90
2023-01-18T00:43:46.888Z,8.00
2023-01-18T00:46:17.928Z,8.87
2023-01-18T00:48:45.282Z,8.10
2023-01-18T00:51:16.246Z,8.33
2023-01-18T00:53:44.699Z,8.70
2023-01-18T00:56:15.783Z,9.00
2023-01-18T00:58:42.888Z,9.37
2023-01-18T01:01:11.070Z,8.60
2023-01-18T01:03:57.325Z,10.67
2023-01-18T01:06:46.516Z,8.93
2023-01-18T01:09:17.133Z,9.73
2023-01-18T01:12:04.527Z,10.97
2023-01-18T01:14:52.102Z,11.97
2023-01-18T01:17:37.620Z,11.27
2023-01-18T01:20:24.006Z,8.83
2023-01-18T01:23:09.771Z,9.80
2023-01-18T01:25:57.107Z,10.97
2023-01-18T01:28:24.891Z,12.73
2023-01-18T01:30:51.959Z,15.30
2023-01-18T01:33:19.482Z,12.80
2023-01-18T01:35:46.458Z,12.17
2023-01-18T01:38:13.445Z,13.20
2023-01-18T01:40:40.434Z,12.90
2023-01-18T01:43:13.332Z,10.93
2023-01-18T01:45:40.591Z,9.73
2023-01-18T01:48:09.991Z,11.10
2023-01-18T01:50:39.756Z,10.03
2023-01-18T01:53:07.048Z,11.13
2023-01-18T01:55:38.036Z,11.87
2023-01-18T01:58:16.983Z,12.60
2023-01-18T02:00:44.770Z,10.67
2023-01-18T02:03:18.061Z,12.03
2023-01-18T02:05:50.267Z,11.80
2023-01-18T02:08:25.268Z,11.90
2023-01-18T02:10:52.962Z,13.13
2023-01-18T02:13:23.189Z,13.10
2023-01-18T02:16:24.292Z,13.47
2023-01-18T02:19:24.430Z,10.43
2023-01-18T02:22:18.966Z,11.37
2023-01-18T02:25:16.005Z,10.90
2023-01-18T02:28:08.970Z,11.80
2023-01-18T02:31:01.132Z,10.37
2023-01-18T02:33:46.959Z,11.67
2023-01-18T02:36:31.480Z,12.53
2023-01-18T02:39:10.635Z,12.30
2023-01-18T02:42:12.960Z,11.30
2023-01-18T02:45:04.902Z,11.57
2023-01-18T02:47:33.140Z,14.50
2023-01-18T02:50:00.048Z,15.13
2023-01-18T02:52:50.910Z,12.47
2023-01-18T02:55:39.520Z,12.30
2023-01-18T02:58:54.672Z,11.80
2023-01-18T03:01:30.391Z,11.60
2023-01-18T03:04:06.563Z,10.70
2023-01-18T03:06:33.950Z,12.40
2023-01-18T03:09:01.657Z,11.37
2023-01-18T03:11:47.509Z,11.70
2023-01-18T03:14:21.390Z,10.50
2023-01-18T03:17:11.456Z,11.50
2023-01-18T03:20:03.942Z,9.97
2023-01-18T03:22:56.426Z,10.73
2023-01-18T03:25:31.434Z,11.73
2023-01-18T03:28:21.621Z,12.00
2023-01-18T03:31:09.818Z,11.67
2023-01-18T03:33:46.703Z,10.53
2023-01-18T03:36:26.757Z,10.10
2023-01-18T03:38:57.855Z,9.87
2023-01-18T03:41:29.263Z,9.80
2023-01-18T03:44:00.127Z,10.33
2023-01-18T03:46:30.647Z,10.83
2023-01-18T03:48:58.099Z,10.40
2023-01-18T03:51:31.362Z,12.80
2023-01-18T03:54:35.891Z,11.70
2023-01-18T03:57:12.889Z,13.30
2023-01-18T03:59:40.281Z,13.60
2023-01-18T04:02:09.033Z,14.67
2023-01-18T04:04:36.414Z,14.40
2023-01-18T04:07:03.988Z,14.53
2023-01-18T04:09:30.939Z,15.10
2023-01-18T04:11:57.939Z,13.20
2023-01-18T04:14:24.924Z,14.50
2023-01-18T04:16:51.879Z,13.37
2023-01-18T04:19:19.030Z,15.33
2023-01-18T04:21:46.022Z,13.90
2023-01-18T04:24:13.227Z,13.73
2023-01-18T04:26:40.281Z,14.43
2023-01-18T04:29:07.210Z,16.37
2023-01-18T04:31:34.192Z,14.40
2023-01-18T04:34:01.169Z,14.40
2023-01-18T04:36:28.449Z,16.70
2023-01-18T04:38:56.032Z,14.67
2023-01-18T04:41:23.304Z,15.70
2023-01-18T04:43:50.205Z,15.00
2023-01-18T04:46:17.490Z,17.63
2023-01-18T04:48:44.583Z,17.47
2023-01-18T04:51:14.861Z,16.23
2023-01-18T04:53:42.889Z,17.40
2023-01-18T04:56:11.105Z,14.40
2023-01-18T04:58:38.622Z,14.07
2023-01-18T05:01:09.026Z,16.17
2023-01-18T05:03:38.248Z,13.67
2023-01-18T05:06:09.712Z,15.50
2023-01-18T05:08:40.915Z,12.40
2023-01-18T05:11:14.683Z,14.07
2023-01-18T05:13:42.426Z,14.30
2023-01-18T05:16:16.723Z,15.00
2023-01-18T05:18:44.848Z,13.17
2023-01-18T05:21:12.474Z,13.53
2023-01-18T05:23:42.119Z,14.60
2023-01-18T05:26:20.955Z,13.20
2023-01-18T05:28:49.092Z,11.80
2023-01-18T05:31:18.745Z,12.47
2023-01-18T05:33:45.780Z,14.07
2023-01-18T05:36:12.961Z,13.37
2023-01-18T05:38:39.919Z,15.17
2023-01-18T05:41:06.953Z,14.37
2023-01-18T05:43:35.723Z,13.40
2023-01-18T05:46:02.872Z,15.50
2023-01-18T05:48:30.106Z,13.90
2023-01-18T05:50:57.101Z,14.00
2023-01-18T05:53:24.105Z,12.87
2023-01-18T05:55:59.569Z,9.80
2023-01-18T05:58:27.994Z,10.00
2023-01-18T06:00:55.689Z,9.90
2023-01-18T06:03:25.183Z,8.03
2023-01-18T06:05:52.686Z,8.00
2023-01-18T06:08:20.699Z,7.60
2023-01-18T06:10:58.919Z,6.97
2023-01-18T06:13:28.727Z,8.73
2023-01-18T06:16:00.231Z,8.47
2023-01-18T06:18:31.194Z,8.23
2023-01-18T06:21:01.401Z,9.43
2023-01-18T06:23:30.048Z,8.00
2023-01-18T06:25:57.253Z,7.50
2023-01-18T06:28:24.547Z,7.93
2023-01-18T06:30:56.446Z,7.83
2023-01-18T06:33:24.604Z,6.97
2023-01-18T06:35:52.243Z,6.97
2023-01-18T06:38:19.328Z,8.90
2023-01-18T06:40:46.274Z,5.47
2023-01-18T06:43:14.410Z,6.80
2023-01-18T06:45:41.672Z,7.87
2023-01-18T06:48:08.817Z,7.37
2023-01-18T06:50:35.939Z,7.70
2023-01-18T06:53:02.968Z,6.90
2023-01-18T06:55:29.946Z,6.30
2023-01-18T06:57:57.093Z,5.97
2023-01-18T07:00:24.457Z,8.00
2023-01-18T07:02:53.182Z,5.97
2023-01-18T07:05:20.603Z,7.33
2023-01-18T07:07:47.717Z,6.50
2023-01-18T07:10:16.491Z,8.17
2023-01-18T07:12:48.433Z,8.30
2023-01-18T07:15:21.981Z,9.23
2023-01-18T07:17:50.371Z,9.40
2023-01-18T07:20:18.204Z,8.00
2023-01-18T07:22:45.500Z,8.87
2023-01-18T07:25:18.886Z,9.50
2023-01-18T07:27:46.262Z,9.73
2023-01-18T07:30:13.830Z,9.50
2023-01-18T07:32:50.327Z,11.03
2023-01-18T07:35:21.991Z,9.77
2023-01-18T07:37:53.318Z,9.43
2023-01-18T07:40:21.783Z,9.77
2023-01-18T07:42:49.945Z,8.37
2023-01-18T07:45:16.944Z,7.60
2023-01-18T07:47:46.218Z,9.67
2023-01-18T07:50:14.353Z,8.60
2023-01-18T07:52:41.412Z,7.67
2023-01-18T07:55:09.070Z,8.63
2023-01-18T07:57:36.067Z,8.70
2023-01-18T08:00:03.966Z,8.30
2023-01-18T08:02:39.521Z,7.53
2023-01-18T08:05:09.227Z,7.77
2023-01-18T08:07:36.841Z,7.87
2023-01-18T08:10:03.968Z,7.70
2023-01-18T08:12:30.923Z,7.40
2023-01-18T08:14:57.903Z,6.67
2023-01-18T08:17:25.032Z,7.10
2023-01-18T08:19:52.040Z,6.90
2023-01-18T08:22:19.024Z,8.70
2023-01-18T08:24:45.923Z,11.53
2023-01-18T08:27:13.165Z,11.43
2023-01-18T08:29:40.115Z,11.80
2023-01-18T08:32:07.101Z,13.57
2023-01-18T08:34:34.073Z,12.60
2023-01-18T08:37:01.017Z,11.10
2023-01-18T08:39:27.998Z,14.17
2023-01-18T08:41:54.923Z,13.47
2023-01-18T08:44:21.955Z,12.97
2023-01-18T08:46:48.901Z,13.50
2023-01-18T08:49:16.238Z,14.57
2023-01-18T08:51:43.560Z,11.93
2023-01-18T08:54:10.596Z,11.70
2023-01-18T08:56:37.606Z,14.13
2023-01-18T08:59:09.455Z,11.70
2023-01-18T09:01:36.434Z,11.83
2023-01-18T09:04:03.604Z,11.13
2023-01-18T09:06:32.185Z,12.53
2023-01-18T09:08:59.850Z,11.50
2023-01-18T09:11:27.153Z,11.20
2023-01-18T09:14:02.634Z,11.87
2023-01-18T09:16:31.154Z,11.27
2023-01-18T09:18:58.587Z,12.13
2023-01-18T09:21:27.964Z,12.00
2023-01-18T09:23:55.164Z,11.03
2023-01-18T09:26:22.167Z,11.00
2023-01-18T09:28:52.922Z,9.60
2023-01-18T09:31:23.372Z,10.60
2023-01-18T09:33:54.042Z,11.20
2023-01-18T09:36:26.442Z,10.10
2023-01-18T09:38:55.370Z,10.47
2023-01-18T09:41:30.710Z,9.80
2023-01-18T09:44:23.385Z,10.67
2023-01-18T09:47:00.579Z,9.70
2023-01-18T09:49:38.134Z,10.50
2023-01-18T09:52:20.273Z,9.60
2023-01-18T09:55:48.323Z,12.30
2023-01-18T09:58:54.679Z,9.23
2023-01-18T10:01:28.389Z,9.50
2023-01-18T10:03:56.880Z,11.10
2023-01-18T10:06:37.452Z,11.40
2023-01-18T10:09:12.936Z,8.83
2023-01-18T10:12:01.809Z,9.00
2023-01-18T10:14:49.392Z,9.90
2023-01-18T10:17:23.120Z,8.87
2023-01-18T10:19:51.374Z,9.33
2023-01-18T10:22:31.992Z,9.20
2023-01-18T10:25:04.947Z,9.30
2023-01-18T10:28:04.642Z,7.63
2023-01-18T10:30:46.534Z,7.87
2023-01-18T10:33:25.574Z,8.37
2023-01-18T10:36:38.361Z,9.10
2023-01-18T10:39:24.215Z,9.07
2023-01-18T10:41:51.676Z,9.70
2023-01-18T10:44:18.635Z,8.70
2023-01-18T10:46:45.949Z,8.63
2023-01-18T10:49:34.599Z,9.47
2023-01-18T10:52:26.253Z,9.77
2023-01-18T10:55:02.554Z,8.30
2023-01-18T10:57:36.173Z,9.47
2023-01-18T11:00:12.398Z,11.37
2023-01-18T11:02:40.561Z,11.43
2023-01-18T11:05:32.271Z,9.63
2023-01-18T11:08:21.240Z,11.40
2023-01-18T11:11:45.482Z,10.53
2023-01-18T11:14:29.574Z,9.50
2023-01-18T11:17:10.932Z,13.43
2023-01-18T11:19:39.164Z,14.90
2023-01-18T11:22:13.344Z,12.83
2023-01-18T11:24:40.547Z,16.23
2023-01-18T11:27:19.103Z,12.30
2023-01-18T11:29:46.742Z,11.93
2023-01-18T11:32:25.974Z,11.83
2023-01-18T11:34:59.888Z,13.10
2023-01-18T11:37:40.171Z,13.90
2023-01-18T11:40:19.602Z,12.33
2023-01-18T11:42:49.041Z,11.67
2023-01-18T11:45:40.959Z,11.80
2023-01-18T11:48:44.992Z,12.80
2023-01-18T11:51:25.347Z,10.37
2023-01-18T11:54:18.810Z,11.90
2023-01-18T11:56:51.325Z,11.50
2023-01-18T11:59:46.201Z,11.20
2023-01-18T12:02:56.255Z,10.00
2023-01-18T12:05:54.667Z,10.30
2023-01-18T12:08:56.748Z,10.70
2023-01-18T12:12:13.447Z,10.20
2023-01-18T12:15:24.981Z,11.93
2023-01-18T12:18:13.226Z,11.80
2023-01-18T12:21:24.286Z,10.03
2023-01-18T12:24:47.065Z,9.33
2023-01-18T12:27:33.541Z,11.30
2023-01-18T12:30:13.838Z,10.20
2023-01-18T12:33:05.075Z,10.97
2023-01-18T12:35:51.931Z,10.77
2023-01-18T12:38:23.385Z,10.47
2023-01-18T12:41:11.916Z,10.77
2023-01-18T12:43:57.488Z,9.53
2023-01-18T12:46:28.252Z,9.87
2023-01-18T12:49:11.630Z,9.50
2023-01-18T12:51:40.868Z,9.70
2023-01-18T12:54:27.820Z,10.10
2023-01-18T12:56:58.091Z,10.53
2023-01-18T12:59:36.059Z,9.37
2023-01-18T13:02:33.152Z,10.30
2023-01-18T13:05:12.107Z,10.87
2023-01-18T13:07:44.398Z,10.00
2023-01-18T13:10:24.966Z,8.00
2023-01-18T13:12:53.530Z,10.33
2023-01-18T13:15:40.900Z,10.23
2023-01-18T13:18:38.974Z,9.00
2023-01-18T13:21:44.711Z,8.50
2023-01-18T13:24:26.679Z,8.40
2023-01-18T13:27:06.667Z,8.90
2023-01-18T13:29:33.786Z,9.23
2023-01-18T13:32:00.796Z,7.50
2023-01-18T13:34:44.872Z,8.20
2023-01-18T13:37:49.249Z,7.87
2023-01-18T13:40:22.114Z,8.50
2023-01-18T13:42:50.198Z,8.70
2023-01-18T13:45:24.786Z,7.00
2023-01-18T13:48:01.479Z,8.47
2023-01-18T13:50:28.590Z,8.70
2023-01-18T13:53:22.640Z,9.73
2023-01-18T13:56:15.635Z,8.70
2023-01-18T13:58:55.746Z,8.27
2023-01-18T14:01:27.560Z,8.17
2023-01-18T14:03:55.403Z,6.97
2023-01-18T14:06:32.124Z,7.00
2023-01-18T14:09:14.623Z,7.53
2023-01-18T14:11:52.026Z,7.67
2023-01-18T14:14:19.718Z,7.07
2023-01-18T14:17:06.212Z,7.50
2023-01-18T14:19:47.287Z,7.60
2023-01-18T14:22:41.063Z,6.73
2023-01-18T14:25:39.202Z,7.57
2023-01-18T14:28:15.167Z,6.43
2023-01-18T14:30:44.048Z,8.57
2023-01-18T14:33:29.968Z,7.97
2023-01-18T14:35:58.876Z,8.80
2023-01-18T14:38:26.857Z,10.93
2023-01-18T14:40:57.974Z,10.87
2023-01-18T14:43:35.447Z,12.60
2023-01-18T14:46:07.639Z,8.87
2023-01-18T14:48:46.503Z,8.67
2023-01-18T14:51:28.245Z,7.47
2023-01-18T14:54:05.055Z,7.93
2023-01-18T14:56:40.526Z,7.27
2023-01-18T14:59:27.664Z,7.30
2023-01-18T15:02:03.747Z,6.40
2023-01-18T15:04:34.804Z,9.40
2023-01-18T15:07:10.070Z,6.73
2023-01-18T15:09:39.889Z,7.73
2023-01-18T15:12:12.286Z,6.87
2023-01-18T15:14:45.309Z,7.80
2023-01-18T15:17:36.397Z,9.40
2023-01-18T15:20:08.934Z,9.93
2023-01-18T15:22:38.794Z,10.70
2023-01-18T15:25:20.925Z,10.63
2023-01-18T15:27:51.622Z,13.83
2023-01-18T15:30:23.695Z,13.57
2023-01-18T15:32:56.505Z,13.03
2023-01-18T15:35:25.545Z,14.93
2023-01-18T15:37:52.665Z,15.07
2023-01-18T15:40:19.629Z,20.13
2023-01-18T15:42:51.074Z,16.00
2023-01-18T15:45:29.669Z,15.07
2023-01-18T15:48:22.530Z,13.63
2023-01-18T15:50:53.797Z,15.03
2023-01-18T15:53:38.303Z,12.37
2023-01-18T15:56:17.301Z,7.60
2023-01-18T15:58:55.694Z,8.73
2023-01-18T16:01:31.711Z,7.50
2023-01-18T16:04:09.156Z,7.80
2023-01-18T16:06:37.714Z,9.40
2023-01-18T16:09:12.725Z,9.63
2023-01-18T16:11:47.764Z,8.83
2023-01-18T16:14:32.319Z,9.00
2023-01-18T16:17:11.935Z,9.60
2023-01-18T16:19:56.304Z,8.47
2023-01-18T16:22:35.721Z,10.00
2023-01-18T16:25:10.179Z,10.23
2023-01-18T16:27:54.074Z,11.27
2023-01-18T16:30:28.970Z,10.70
2023-01-18T16:32:55.971Z,10.67
2023-01-18T16:35:23.982Z,8.70
2023-01-18T16:37:51.948Z,9.90
2023-01-18T16:40:23.711Z,12.60
2023-01-18T16:43:05.257Z,11.00
2023-01-18T16:45:37.538Z,9.70
2023-01-18T16:48:05.732Z,9.67
2023-01-18T16:50:32.824Z,9.77
2023-01-18T16:52:59.837Z,12.30
2023-01-18T16:55:27.197Z,13.67
2023-01-18T16:57:54.281Z,16.93
2023-01-18T17:00:33.839Z,17.37
2023-01-18T17:03:00.823Z,16.67
2023-01-18T17:05:29.923Z,15.10
2023-01-18T17:07:57.067Z,14.97
2023-01-18T17:10:43.010Z,12.90
2023-01-18T17:13:10.683Z,14.83
2023-01-18T17:15:41.662Z,18.07
2023-01-18T17:18:16.512Z,18.00
2023-01-18T17:20:44.565Z,15.50
2023-01-18T17:23:11.514Z,18.07
2023-01-18T17:25:38.705Z,16.40
2023-01-18T17:28:06.126Z,16.47
2023-01-18T17:30:33.298Z,15.83
2023-01-18T17:33:01.184Z,15.70
2023-01-18T17:35:28.687Z,17.23
2023-01-18T17:38:05.551Z,18.73
2023-01-18T17:40:42.759Z,14.77
2023-01-18T17:43:32.011Z,12.50
2023-01-18T17:46:04.233Z,11.57
2023-01-18T17:48:31.435Z,10.80
2023-01-18T17:50:58.747Z,11.73
2023-01-18T17:53:26.076Z,12.50
2023-01-18T17:55:53.227Z,15.33
2023-01-18T17:58:20.305Z,13.77
2023-01-18T18:00:47.872Z,14.93
2023-01-18T18:03:15.040Z,12.83
2023-01-18T18:05:43.218Z,12.37
2023-01-18T18:08:10.203Z,11.63
2023-01-18T18:10:37.285Z,13.07
2023-01-18T18:13:04.708Z,14.77
2023-01-18T18:15:31.672Z,16.80
2023-01-18T18:17:58.726Z,14.53
2023-01-18T18:20:25.779Z,14.93
2023-01-18T18:22:52.808Z,15.10
2023-01-18T18:25:19.918Z,17.47
2023-01-18T18:27:47.509Z,17.70
2023-01-18T18:30:17.516Z,16.23
2023-01-18T18:32:44.649Z,25.00
2023-01-18T18:35:24.535Z,15.93
2023-01-18T18:37:54.037Z,22.37
2023-01-18T18:40:21.977Z,24.97
2023-01-18T18:43:04.944Z,17.47
2023-01-18T18:45:33.091Z,19.37
2023-01-18T18:48:00.960Z,18.20
2023-01-18T18:50:28.881Z,18.10
2023-01-18T18:52:56.158Z,19.30
2023-01-18T18:55:24.381Z,18.47
2023-01-18T18:57:51.326Z,20.00
2023-01-18T19:00:18.959Z,23.17
2023-01-18T19:02:45.886Z,21.67
2023-01-18T19:05:12.900Z,19.83
2023-01-18T19:07:39.978Z,16.83
2023-01-18T19:10:07.503Z,17.47
2023-01-18T19:12:34.427Z,22.33
2023-01-18T19:15:01.503Z,22.17
2023-01-18T19:17:31.629Z,19.20
2023-01-18T19:19:59.325Z,20.27
2023-01-18T19:22:26.544Z,16.63
2023-01-18T19:24:53.914Z,18.93
2023-01-18T19:27:21.845Z,17.00
2023-01-18T19:29:48.941Z,25.17
2023-01-18T19:32:16.258Z,18.30
2023-01-18T19:34:43.206Z,21.73
2023-01-18T19:37:10.211Z,20.60
2023-01-18T19:39:37.259Z,23.30
2023-01-18T19:42:04.504Z,27.93
2023-01-18T19:44:31.555Z,21.60
2023-01-18T19:46:58.517Z,23.60
2023-01-18T19:49:26.020Z,23.97
2023-01-18T19:51:54.518Z,19.30
2023-01-18T19:54:22.396Z,20.87
2023-01-18T19:56:49.559Z,24.03
2023-01-18T19:59:16.611Z,21.93
2023-01-18T20:01:44.732Z,21.93
2023-01-18T20:04:13.215Z,21.87
2023-01-18T20:06:43.155Z,17.30
2023-01-18T20:09:19.674Z,18.50
2023-01-18T20:11:48.797Z,26.67
2023-01-18T20:14:16.222Z,21.80
2023-01-18T20:16:45.923Z,20.83
2023-01-18T20:19:14.760Z,21.63
2023-01-18T20:21:41.749Z,19.53
2023-01-18T20:24:09.292Z,21.77
2023-01-18T20:26:39.599Z,31.80
2023-01-18T20:29:08.266Z,19.97
2023-01-18T20:31:37.817Z,21.30
2023-01-18T20:34:05.950Z,40.40
2023-01-18T20:36:37.449Z,26.27
2023-01-18T20:39:05.527Z,20.57
2023-01-18T20:41:32.697Z,18.87
2023-01-18T20:43:59.892Z,21.63
2023-01-18T20:46:27.229Z,20.17
2023-01-18T20:48:54.160Z,17.60
2023-01-18T20:51:21.106Z,16.87
2023-01-18T20:53:48.224Z,18.47
2023-01-18T20:56:28.435Z,17.87
2023-01-18T20:58:57.025Z,17.83
2023-01-18T21:01:24.134Z,18.80
2023-01-18T21:03:55.399Z,20.73
2023-01-18T21:06:22.942Z,19.80
2023-01-18T21:08:54.484Z,23.23
2023-01-18T21:11:26.632Z,21.70
2023-01-18T21:13:55.635Z,18.90
2023-01-18T21:16:23.714Z,21.40
2023-01-18T21:18:56.116Z,21.23
2023-01-18T21:21:24.364Z,21.43
2023-01-18T21:23:51.771Z,20.10
2023-01-18T21:26:19.318Z,19.93
2023-01-18T21:28:46.853Z,22.40
2023-01-18T21:31:14.193Z,21.33
2023-01-18T21:33:42.433Z,20.70
2023-01-18T21:36:13.394Z,18.93
2023-01-18T21:38:41.271Z,18.00
2023-01-18T21:41:26.807Z,18.70
2023-01-18T21:44:12.784Z,21.13
2023-01-18T21:46:50.941Z,21.57
2023-01-18T21:52:46.649Z,20.30
2023-01-18T21:55:15.694Z,23.00
2023-01-18T21:57:43.019Z,18.80
2023-01-18T22:00:11.366Z,18.27
2023-01-18T22:02:38.678Z,17.50
2023-01-18T22:05:08.461Z,17.40
2023-01-18T22:07:35.536Z,22.73
2023-01-18T22:10:06.030Z,21.10
2023-01-18T22:12:35.592Z,20.67
2023-01-18T22:15:05.073Z,20.63
2023-01-18T22:17:32.385Z,18.10
2023-01-18T22:19:59.977Z,20.17
2023-01-18T22:22:27.198Z,17.60
2023-01-18T22:24:56.461Z,17.80
2023-01-18T22:27:23.409Z,18.40
2023-01-18T22:29:51.214Z,17.70
2023-01-18T22:32:18.177Z,18.80
2023-01-18T22:34:45.183Z,18.23
2023-01-18T22:37:12.504Z,18.40
2023-01-18T22:39:39.861Z,20.80
2023-01-18T22:42:07.269Z,18.70
2023-01-18T22:44:34.797Z,14.53
2023-01-18T22:47:02.126Z,18.40
2023-01-18T22:49:29.484Z,16.93
2023-01-18T22:51:56.897Z,16.23
2023-01-18T22:54:24.378Z,17.27
2023-01-18T22:56:51.714Z,19.20
2023-01-18T22:59:19.096Z,16.43
2023-01-18T23:01:46.037Z,20.33
2023-01-18T23:04:13.035Z,17.73
2023-01-18T23:06:46.727Z,19.37
2023-01-18T23:09:18.080Z,21.70
2023-01-18T23:11:47.460Z,16.70
2023-01-18T23:14:33.236Z,18.00
2023-01-18T23:17:19.132Z,17.00
2023-01-18T23:19:46.549Z,17.30
2023-01-18T23:22:13.599Z,15.27
2023-01-18T23:24:40.639Z,15.53
2023-01-18T23:27:10.104Z,16.90
2023-01-18T23:29:39.181Z,15.43
2023-01-18T23:32:07.332Z,17.10
2023-01-18T23:34:34.320Z,18.97
2023-01-18T23:37:01.373Z,16.83
2023-01-18T23:39:46.862Z,16.27
2023-01-18T23:42:32.466Z,18.00
2023-01-18T23:45:17.801Z,16.37
2023-01-18T23:48:03.627Z,13.93
2023-01-18T23:50:49.181Z,13.83
2023-01-18T23:53:34.594Z,14.07
2023-01-18T23:56:01.563Z,13.90
2023-01-18T23:58:28.672Z,13.80
